Time;durP1;ratioP1;P1;durP2;ratioP2;P2;SDS_P1;SDS_P2;PMS_P1;PMS_P2;Temp;Humidity;BMP_temperature;BMP_pressure;BME280_temperature;BME280_humidity;BME280_pressure;Samples;Min_cycle;Max_cycle;Signal;HPM_P1;HPM_P2
2023/04/29 00:00:30;;;;;;;45.38;27.75;;;9.50;99.90;;;;;;4991095;28;20034;-92
2023/04/29 00:02:56;;;;;;;46.17;28.35;;;9.50;99.90;;;;;;5006035;28;20027;-91
2023/04/29 00:05:22;;;;;;;44.05;25.88;;;9.50;99.90;;;;;;5004205;28;20088;-91
2023/04/29 00:07:48;;;;;;;53.85;29.85;;;9.50;99.90;;;;;;4987257;28;20034;-91
2023/04/29 00:10:14;;;;;;;47.58;27.85;;;9.50;99.90;;;;;;5007097;28;20022;-91
2023/04/29 00:12:41;;;;;;;51.30;30.65;;;9.50;99.90;;;;;;4991004;28;20033;-92
2023/04/29 00:15:07;;;;;;;53.45;29.88;;;9.40;99.90;;;;;;4991795;28;20502;-91
2023/04/29 00:17:33;;;;;;;51.15;29.13;;;9.40;99.90;;;;;;4992265;28;20022;-91
2023/04/29 00:19:59;;;;;;;48.88;29.13;;;9.50;99.90;;;;;;4991975;28;20116;-92
2023/04/29 00:22:25;;;;;;;51.67;29.38;;;9.40;99.90;;;;;;4992029;28;20054;-91
2023/04/29 00:24:52;;;;;;;56.03;29.95;;;9.40;99.90;;;;;;5002593;28;20406;-93
2023/04/29 00:27:18;;;;;;;51.85;31.75;;;9.40;99.90;;;;;;4990772;28;20113;-91
2023/04/29 00:29:44;;;;;;;52.38;31.85;;;9.40;99.90;;;;;;5005230;28;20044;-91
2023/04/29 00:32:09;;;;;;;48.20;29.23;;;9.40;99.90;;;;;;4991908;28;20113;-91
2023/04/29 00:34:35;;;;;;;55.05;30.75;;;9.40;99.90;;;;;;5005115;28;20077;-91
2023/04/29 00:37:01;;;;;;;53.92;32.42;;;9.40;99.90;;;;;;4991676;28;20080;-92
2023/04/29 00:39:27;;;;;;;51.20;31.50;;;9.40;99.90;;;;;;5006344;28;20061;-93
2023/04/29 00:41:52;;;;;;;49.72;30.45;;;9.40;99.90;;;;;;4989900;28;20034;-91
2023/04/29 00:44:19;;;;;;;46.40;29.30;;;9.40;99.90;;;;;;5003952;28;20096;-92
2023/04/29 00:46:45;;;;;;;51.35;29.10;;;9.40;99.90;;;;;;5004802;28;20418;-92
2023/04/29 00:49:13;;;;;;;46.78;29.30;;;9.30;99.90;;;;;;4990640;28;20037;-92
2023/04/29 00:51:41;;;;;;;49.33;28.85;;;9.30;99.90;;;;;;4990914;28;20153;-93
2023/04/29 00:54:09;;;;;;;48.75;29.02;;;9.30;99.90;;;;;;4991435;28;20038;-91
2023/04/29 00:56:38;;;;;;;47.45;28.20;;;9.30;99.90;;;;;;4993014;28;20026;-92
2023/04/29 00:59:04;;;;;;;44.20;27.30;;;9.30;99.90;;;;;;5000456;28;20093;-93
2023/04/29 01:01:31;;;;;;;42.70;26.10;;;9.30;99.90;;;;;;4990915;28;20025;-91
2023/04/29 01:03:57;;;;;;;42.78;27.23;;;9.20;99.90;;;;;;5007801;28;20048;-93
2023/04/29 01:06:51;;;;;;;43.55;25.90;;;9.20;99.90;;;;;;4992238;28;20540;-92
2023/04/29 01:09:46;;;;;;;45.20;26.88;;;9.20;99.90;;;;;;4976154;28;20474;-92
2023/04/29 01:12:25;;;;;;;41.33;25.35;;;9.20;99.90;;;;;;5004638;28;20026;-91
2023/04/29 01:15:29;;;;;;;40.10;25.08;;;9.30;99.90;;;;;;5007348;28;20037;-92
2023/04/29 01:17:57;;;;;;;41.63;25.70;;;9.20;99.90;;;;;;5008901;28;20036;-91
2023/04/29 01:20:24;;;;;;;44.08;27.52;;;9.20;99.90;;;;;;4993767;28;20033;-91
2023/04/29 01:22:50;;;;;;;42.47;25.30;;;9.20;99.90;;;;;;5010180;28;20498;-92
2023/04/29 01:25:17;;;;;;;44.95;25.83;;;9.20;99.90;;;;;;4994798;28;20025;-92
2023/04/29 01:28:25;;;;;;;40.75;25.73;;;9.20;99.90;;;;;;5002726;28;20034;-91
2023/04/29 01:31:09;;;;;;;42.97;26.65;;;9.20;99.90;;;;;;4992453;28;20542;-92
2023/04/29 01:33:47;;;;;;;43.42;26.98;;;9.20;99.90;;;;;;4991554;28;20470;-90
2023/04/29 01:36:19;;;;;;;37.28;24.63;;;9.20;99.90;;;;;;4988742;28;20026;-92
2023/04/29 01:38:51;;;;;;;41.03;24.20;;;9.20;99.90;;;;;;4990473;28;20056;-92
2023/04/29 01:41:29;;;;;;;40.53;26.33;;;9.20;99.90;;;;;;4990935;28;20018;-92
2023/04/29 01:44:06;;;;;;;42.50;25.35;;;9.20;99.90;;;;;;4990932;28;20073;-91
2023/04/29 01:46:34;;;;;;;43.28;25.38;;;9.20;99.90;;;;;;4990474;28;20026;-92
2023/04/29 01:49:00;;;;;;;38.72;24.52;;;9.20;99.90;;;;;;4993446;28;20030;-91
2023/04/29 01:51:28;;;;;;;42.65;25.88;;;9.20;99.90;;;;;;4994083;28;20025;-92
2023/04/29 01:53:54;;;;;;;39.83;23.80;;;9.20;99.90;;;;;;4993041;28;20022;-91
2023/04/29 01:56:20;;;;;;;41.95;25.50;;;9.20;99.90;;;;;;5008471;28;20033;-91
2023/04/29 01:58:58;;;;;;;40.50;24.60;;;9.20;99.90;;;;;;4995907;28;20057;-91
2023/04/29 02:01:41;;;;;;;39.75;23.40;;;9.20;99.90;;;;;;5008797;28;20044;-91
2023/04/29 02:04:08;;;;;;;39.42;24.40;;;9.30;99.90;;;;;;5006123;28;20080;-91
2023/04/29 02:06:35;;;;;;;38.78;25.38;;;9.20;99.90;;;;;;4992214;28;20120;-92
2023/04/29 02:09:03;;;;;;;37.95;22.88;;;9.20;99.90;;;;;;5006170;28;20118;-91
2023/04/29 02:11:30;;;;;;;36.70;22.67;;;9.30;99.90;;;;;;4993802;28;20033;-91
2023/04/29 02:13:56;;;;;;;44.63;25.20;;;9.20;99.90;;;;;;5006149;28;20029;-91
2023/04/29 02:16:22;;;;;;;39.42;25.00;;;9.20;99.90;;;;;;4988844;28;20048;-91
2023/04/29 02:18:55;;;;;;;39.38;24.90;;;9.20;99.90;;;;;;4993858;28;20034;-92
2023/04/29 02:21:21;;;;;;;39.58;25.23;;;9.20;99.90;;;;;;5008261;28;20022;-92
2023/04/29 02:23:47;;;;;;;36.20;22.45;;;9.20;99.90;;;;;;5008664;28;20041;-91
2023/04/29 02:26:14;;;;;;;37.33;23.40;;;9.20;99.90;;;;;;4993626;28;20026;-91
2023/04/29 02:28:40;;;;;;;39.70;23.42;;;9.20;99.90;;;;;;4991601;28;20034;-90
2023/04/29 02:31:05;;;;;;;36.85;22.77;;;9.20;99.90;;;;;;4993573;28;20033;-92
2023/04/29 02:33:32;;;;;;;37.83;22.40;;;9.20;99.90;;;;;;4988803;28;20026;-92
2023/04/29 02:35:58;;;;;;;32.58;20.42;;;9.20;99.90;;;;;;4988976;28;20112;-92
2023/04/29 02:38:24;;;;;;;30.38;19.60;;;9.20;99.90;;;;;;5008547;28;20099;-90
2023/04/29 02:40:50;;;;;;;31.92;20.25;;;9.20;99.90;;;;;;4990228;28;20375;-90
2023/04/29 02:43:16;;;;;;;29.40;18.42;;;9.20;99.90;;;;;;4993593;28;20107;-90
2023/04/29 02:45:44;;;;;;;28.58;17.20;;;9.20;99.90;;;;;;4992729;28;20145;-90
2023/04/29 02:48:09;;;;;;;32.80;19.00;;;9.20;99.90;;;;;;4992285;28;20101;-91
2023/04/29 02:50:35;;;;;;;28.48;17.95;;;9.30;99.90;;;;;;5006380;28;20092;-92
2023/04/29 02:53:02;;;;;;;32.00;18.33;;;9.20;99.90;;;;;;5007864;28;20018;-91
2023/04/29 02:55:27;;;;;;;28.20;18.48;;;9.20;99.90;;;;;;4993042;28;20028;-90
2023/04/29 02:57:57;;;;;;;30.73;17.75;;;9.30;99.90;;;;;;5001362;28;20057;-91
2023/04/29 03:00:23;;;;;;;28.52;17.27;;;9.30;99.90;;;;;;5008703;28;20041;-90
2023/04/29 03:02:49;;;;;;;24.67;14.98;;;9.20;99.90;;;;;;4990926;28;20029;-91
2023/04/29 03:05:15;;;;;;;22.17;13.38;;;9.20;99.90;;;;;;4993044;28;20371;-90
2023/04/29 03:07:40;;;;;;;25.50;15.40;;;9.20;99.90;;;;;;4992855;28;20033;-91
2023/04/29 03:10:07;;;;;;;26.08;15.95;;;9.30;99.90;;;;;;4990398;28;20033;-90
2023/04/29 03:12:35;;;;;;;25.48;16.63;;;9.20;99.90;;;;;;4992550;28;20022;-88
2023/04/29 03:15:00;;;;;;;28.30;17.65;;;9.30;99.90;;;;;;4992173;28;20041;-90
2023/04/29 03:17:27;;;;;;;24.67;16.63;;;9.20;99.90;;;;;;4991398;28;20018;-91
2023/04/29 03:19:53;;;;;;;26.95;16.92;;;9.30;99.90;;;;;;4991654;28;20129;-90
2023/04/29 03:22:19;;;;;;;26.17;17.17;;;9.30;99.90;;;;;;4987625;28;20026;-90
2023/04/29 03:24:44;;;;;;;25.17;16.40;;;9.30;99.90;;;;;;4991942;28;20045;-90
2023/04/29 03:27:10;;;;;;;25.80;16.83;;;9.30;99.90;;;;;;5006010;28;20032;-91
2023/04/29 03:29:36;;;;;;;22.75;15.98;;;9.30;99.90;;;;;;5006434;28;20493;-91
2023/04/29 03:32:02;;;;;;;23.15;15.25;;;9.30;99.90;;;;;;5003999;28;20372;-90
2023/04/29 03:34:28;;;;;;;23.02;14.93;;;9.30;99.90;;;;;;4992051;28;20037;-91
2023/04/29 03:37:17;;;;;;;26.52;16.70;;;9.20;99.90;;;;;;5008552;28;20382;-90
2023/04/29 03:39:47;;;;;;;26.77;15.88;;;9.20;99.90;;;;;;5005780;28;20077;-91
2023/04/29 03:42:13;;;;;;;23.15;14.48;;;9.20;99.90;;;;;;5005995;28;20032;-90
2023/04/29 03:44:38;;;;;;;24.58;15.63;;;9.20;99.90;;;;;;4992290;28;20545;-90
2023/04/29 03:47:05;;;;;;;23.90;16.15;;;9.20;99.90;;;;;;4988211;28;20399;-90
2023/04/29 03:49:31;;;;;;;25.80;16.55;;;9.20;99.90;;;;;;4987101;28;20111;-90
2023/04/29 03:51:57;;;;;;;26.02;17.52;;;9.20;99.90;;;;;;4986538;28;20089;-90
2023/04/29 03:54:23;;;;;;;23.88;15.70;;;9.20;99.90;;;;;;5006209;28;20025;-91
2023/04/29 03:56:48;;;;;;;24.90;14.88;;;9.20;99.90;;;;;;5006068;28;20014;-91
2023/04/29 03:59:14;;;;;;;26.83;15.93;;;9.20;99.90;;;;;;4992279;28;20057;-89
2023/04/29 04:01:41;;;;;;;21.75;14.30;;;9.20;99.90;;;;;;4990503;28;20172;-90
2023/04/29 04:04:06;;;;;;;22.90;14.60;;;9.20;99.90;;;;;;4998600;28;20530;-90
2023/04/29 04:06:33;;;;;;;22.88;15.48;;;9.20;99.90;;;;;;5005095;28;20033;-90
2023/04/29 04:08:59;;;;;;;22.85;14.23;;;9.20;99.90;;;;;;5003921;28;20026;-90
2023/04/29 04:11:28;;;;;;;24.10;16.67;;;9.20;99.90;;;;;;5001776;28;20080;-90
2023/04/29 04:13:56;;;;;;;27.50;15.95;;;9.10;99.90;;;;;;5004033;28;20029;-90
2023/04/29 04:16:23;;;;;;;24.65;16.83;;;9.10;99.90;;;;;;4987363;28;20030;-89
2023/04/29 04:18:48;;;;;;;22.88;14.43;;;9.10;99.90;;;;;;4989449;28;20034;-90
2023/04/29 04:21:14;;;;;;;26.40;16.88;;;9.10;99.90;;;;;;4991859;28;20109;-90
2023/04/29 04:23:44;;;;;;;;;;;9.10;99.90;;;;;;4992113;28;20509;-91
2023/04/29 04:26:13;;;;;;;20.92;15.18;;;9.10;99.90;;;;;;5008120;28;19956;-90
2023/04/29 04:28:45;;;;;;;22.42;15.40;;;9.10;99.90;;;;;;5005676;28;20034;-90
2023/04/29 04:31:17;;;;;;;25.10;16.77;;;9.10;99.90;;;;;;4991455;28;20474;-91
2023/04/29 04:33:44;;;;;;;23.00;14.70;;;9.10;99.90;;;;;;5010618;28;20100;-89
2023/04/29 04:36:10;;;;;;;22.45;14.63;;;9.10;99.90;;;;;;5010684;28;20018;-90
2023/04/29 04:38:36;;;;;;;19.77;13.05;;;9.10;99.90;;;;;;5027408;28;20033;-90
2023/04/29 04:41:07;;;;;;;;;;;9.10;99.90;;;;;;4993965;28;21359;-90
2023/04/29 04:43:38;;;;;;;21.77;13.35;;;9.00;99.90;;;;;;4993093;28;19909;-89
2023/04/29 04:46:10;;;;;;;20.90;13.60;;;9.10;99.90;;;;;;4991727;28;20140;-90
2023/04/29 04:48:38;;;;;;;21.77;14.45;;;9.10;99.90;;;;;;4995748;28;20672;-90
2023/04/29 04:51:12;;;;;;;19.92;13.55;;;9.10;99.90;;;;;;5008818;28;20112;-90
2023/04/29 04:53:38;;;;;;;21.50;12.82;;;9.10;99.90;;;;;;4994797;28;20061;-90
2023/04/29 04:56:07;;;;;;;16.95;12.07;;;9.10;99.90;;;;;;4998772;28;20065;-90
2023/04/29 04:58:35;;;;;;;17.50;11.45;;;9.10;99.90;;;;;;4994459;28;20447;-89
2023/04/29 05:01:02;;;;;;;21.13;14.40;;;9.10;99.90;;;;;;4995367;28;20116;-90
2023/04/29 05:03:28;;;;;;;19.45;14.57;;;9.10;99.90;;;;;;4994102;28;20116;-89
2023/04/29 05:05:58;;;;;;;18.67;12.85;;;9.10;99.90;;;;;;5027750;28;20042;-89
2023/04/29 05:08:24;;;;;;;17.90;12.88;;;9.10;99.90;;;;;;4992126;28;20117;-90
2023/04/29 05:10:51;;;;;;;18.73;12.07;;;9.10;99.90;;;;;;4994557;28;20128;-90
2023/04/29 05:13:17;;;;;;;21.05;14.30;;;9.10;99.90;;;;;;4993413;28;20085;-91
2023/04/29 05:15:43;;;;;;;24.65;16.38;;;9.10;99.90;;;;;;4994498;28;20033;-90
2023/04/29 05:18:10;;;;;;;21.30;14.38;;;9.10;99.90;;;;;;5008248;28;20029;-90
2023/04/29 05:20:36;;;;;;;19.02;13.75;;;9.10;99.90;;;;;;5008599;28;20051;-91
2023/04/29 05:23:03;;;;;;;21.30;15.50;;;9.10;99.90;;;;;;5005550;28;20036;-90
2023/04/29 05:25:33;;;;;;;24.00;15.98;;;9.10;99.90;;;;;;4994501;28;20041;-89
2023/04/29 05:28:00;;;;;;;25.27;14.30;;;9.10;99.90;;;;;;5007047;28;20127;-90
2023/04/29 05:30:29;;;;;;;21.27;15.15;;;9.20;99.90;;;;;;5008641;28;20026;-90
2023/04/29 05:32:55;;;;;;;20.33;14.32;;;9.10;99.90;;;;;;5005935;28;20077;-89
2023/04/29 05:35:21;;;;;;;25.80;16.20;;;9.20;99.90;;;;;;4993172;28;20034;-90
2023/04/29 05:37:47;;;;;;;23.77;15.45;;;9.20;99.90;;;;;;4993958;28;20057;-90
2023/04/29 05:40:41;;;;;;;21.48;15.02;;;9.20;99.90;;;;;;5001630;28;20053;-90
2023/04/29 05:45:47;;;;;;;26.92;16.58;;;9.30;99.90;;;;;;5008274;28;20045;-91
2023/04/29 05:48:13;;;;;;;23.08;15.82;;;9.30;99.90;;;;;;5010566;28;20032;-90
2023/04/29 05:50:39;;;;;;;20.95;15.10;;;9.30;99.90;;;;;;4994259;28;20033;-90
2023/04/29 05:53:05;;;;;;;20.20;14.85;;;9.40;99.90;;;;;;4998281;28;20494;-91
2023/04/29 05:55:31;;;;;;;24.75;17.55;;;9.40;99.90;;;;;;4993619;28;20038;-90
2023/04/29 05:57:57;;;;;;;27.13;16.73;;;9.40;99.90;;;;;;5003893;28;20164;-90
2023/04/29 06:00:23;;;;;;;24.33;17.85;;;9.40;99.90;;;;;;4991515;28;20057;-90
2023/04/29 06:02:54;;;;;;;23.27;15.02;;;9.50;99.90;;;;;;4993345;28;20569;-90
2023/04/29 06:05:19;;;;;;;23.20;16.52;;;9.50;99.90;;;;;;4994364;28;20120;-90
2023/04/29 06:07:58;;;;;;;20.50;14.65;;;9.60;99.90;;;;;;5010031;28;20043;-90
2023/04/29 06:10:41;;;;;;;24.70;17.20;;;9.60;99.90;;;;;;4994250;28;20056;-90
2023/04/29 06:13:06;;;;;;;29.73;18.80;;;9.60;99.90;;;;;;4993671;28;20050;-90
2023/04/29 06:15:32;;;;;;;24.85;16.33;;;9.70;99.90;;;;;;4993419;28;20025;-90
2023/04/29 06:17:58;;;;;;;22.02;15.70;;;9.70;99.90;;;;;;4990858;28;21131;-90
2023/04/29 06:20:24;;;;;;;24.88;18.17;;;9.80;99.90;;;;;;5025014;28;20062;-89
2023/04/29 06:22:49;;;;;;;23.75;15.15;;;9.70;99.90;;;;;;5009280;28;20030;-89
2023/04/29 06:25:15;;;;;;;25.23;17.92;;;9.70;99.90;;;;;;4989101;28;20038;-90
2023/04/29 06:27:46;;;;;;;26.17;16.65;;;9.70;99.90;;;;;;4993852;28;20030;-91
2023/04/29 06:30:12;;;;;;;24.88;17.73;;;9.70;99.90;;;;;;5010279;28;20022;-91
2023/04/29 06:32:39;;;;;;;21.92;15.82;;;9.70;99.90;;;;;;5007123;28;20434;-92
2023/04/29 06:35:06;;;;;;;19.48;13.68;;;9.70;99.90;;;;;;5007921;28;20028;-90
2023/04/29 06:37:55;;;;;;;21.17;15.33;;;9.80;99.90;;;;;;5007655;28;20045;-90
2023/04/29 06:40:40;;;;;;;24.73;15.70;;;9.80;99.90;;;;;;4994015;28;20026;-90
2023/04/29 06:43:08;;;;;;;22.77;15.98;;;9.80;99.90;;;;;;5007356;28;20026;-90
2023/04/29 06:46:04;;;;;;;22.13;15.25;;;9.80;99.90;;;;;;4996611;28;20041;-90
2023/04/29 06:48:38;;;;;;;25.13;17.75;;;9.90;99.90;;;;;;4989735;28;20039;-91
2023/04/29 06:51:04;;;;;;;26.50;17.50;;;9.80;99.90;;;;;;5006030;28;20569;-90
2023/04/29 06:53:30;;;;;;;23.63;16.88;;;9.90;99.90;;;;;;4992590;28;20029;-90
2023/04/29 06:55:55;;;;;;;17.40;13.10;;;9.90;99.90;;;;;;5003955;28;20029;-90
2023/04/29 06:58:21;;;;;;;16.25;12.13;;;10.00;99.90;;;;;;4987993;28;20030;-90
2023/04/29 07:00:48;;;;;;;14.65;10.68;;;10.10;99.90;;;;;;4991879;28;20041;-90
2023/04/29 07:03:15;;;;;;;16.85;12.30;;;10.30;99.90;;;;;;4991934;28;20022;-88
2023/04/29 07:05:41;;;;;;;18.58;12.15;;;10.20;99.90;;;;;;4988391;28;20029;-90
2023/04/29 07:08:09;;;;;;;24.02;16.05;;;10.10;99.90;;;;;;4991870;28;20029;-90
2023/04/29 07:10:34;;;;;;;22.13;15.25;;;10.00;99.90;;;;;;4986906;28;20044;-90
2023/04/29 07:13:00;;;;;;;22.42;15.02;;;10.10;99.90;;;;;;4991938;28;20089;-90
2023/04/29 07:15:27;;;;;;;22.13;16.17;;;10.20;99.90;;;;;;5008020;28;20402;-90
2023/04/29 07:17:53;;;;;;;20.98;14.63;;;10.30;99.90;;;;;;5007319;28;20030;-91
2023/04/29 07:20:19;;;;;;;22.02;14.15;;;10.30;99.90;;;;;;4988842;28;20048;-90
2023/04/29 07:22:45;;;;;;;24.27;15.75;;;10.40;99.90;;;;;;4990795;28;20034;-89
2023/04/29 07:25:11;;;;;;;23.15;16.15;;;10.40;99.90;;;;;;4985390;28;20089;-89
2023/04/29 07:27:37;;;;;;;21.27;14.23;;;10.40;99.90;;;;;;4992101;28;20029;-90
2023/04/29 07:30:04;;;;;;;21.92;15.10;;;10.50;99.90;;;;;;5006545;28;20080;-89
2023/04/29 07:32:31;;;;;;;17.25;12.63;;;10.40;99.90;;;;;;5004420;28;20026;-89
2023/04/29 07:34:58;;;;;;;20.63;13.95;;;10.50;99.90;;;;;;4989701;28;20080;-90
2023/04/29 07:37:24;;;;;;;18.13;13.95;;;10.60;99.90;;;;;;4992382;28;20264;-88
2023/04/29 07:39:50;;;;;;;18.27;12.30;;;10.60;99.90;;;;;;4991167;28;20050;-90
2023/04/29 07:42:19;;;;;;;22.25;13.52;;;10.80;99.90;;;;;;4989877;28;20028;-89
2023/04/29 07:44:45;;;;;;;17.67;12.07;;;10.80;99.90;;;;;;5003119;28;20049;-88
2023/04/29 07:47:11;;;;;;;16.50;10.43;;;10.90;99.90;;;;;;4991901;28;20107;-90
2023/04/29 07:49:37;;;;;;;16.83;11.50;;;11.00;99.90;;;;;;4991112;28;20030;-90
2023/04/29 07:52:08;;;;;;;14.05;9.73;;;11.10;99.90;;;;;;4988669;28;20029;-88
2023/04/29 07:54:35;;;;;;;19.38;13.30;;;11.20;99.90;;;;;;4988390;28;20455;-91
2023/04/29 07:57:02;;;;;;;20.33;12.93;;;11.00;99.90;;;;;;5003985;28;20033;-90
2023/04/29 07:59:28;;;;;;;17.92;11.40;;;11.00;99.90;;;;;;4982869;28;20478;-91
2023/04/29 08:01:54;;;;;;;18.70;13.85;;;11.10;99.90;;;;;;5004839;28;20033;-90
2023/04/29 08:04:20;;;;;;;23.25;14.50;;;11.00;99.90;;;;;;5008594;28;20031;-90
2023/04/29 08:06:57;;;;;;;16.27;12.20;;;11.00;99.90;;;;;;5023710;28;20105;-90
2023/04/29 08:09:22;;;;;;;17.33;12.00;;;11.20;99.90;;;;;;4992226;28;20129;-90
2023/04/29 08:11:48;;;;;;;15.52;11.27;;;11.40;99.90;;;;;;4993291;28;20485;-90
2023/04/29 08:14:14;;;;;;;13.63;10.57;;;11.40;99.90;;;;;;4992534;28;20053;-89
2023/04/29 08:16:40;;;;;;;16.45;10.63;;;11.40;99.90;;;;;;5025352;28;20029;-91
2023/04/29 08:19:05;;;;;;;15.00;10.02;;;11.60;99.90;;;;;;4991867;28;20100;-90
2023/04/29 08:21:32;;;;;;;16.27;11.50;;;11.80;99.90;;;;;;4986533;28;20033;-88
2023/04/29 08:24:01;;;;;;;16.13;10.40;;;11.60;99.90;;;;;;4987172;28;20045;-89
2023/04/29 08:26:26;;;;;;;13.23;9.60;;;11.80;99.90;;;;;;4986353;28;20037;-89
2023/04/29 08:28:52;;;;;;;14.93;9.85;;;12.00;99.90;;;;;;4995845;28;20437;-89
2023/04/29 08:31:19;;;;;;;13.23;7.88;;;12.10;99.90;;;;;;5026112;28;20110;-88
2023/04/29 08:33:46;;;;;;;11.95;8.55;;;12.30;99.90;;;;;;4987576;28;20038;-89
2023/04/29 08:36:11;;;;;;;17.30;10.07;;;12.40;99.90;;;;;;5003719;28;20025;-88
2023/04/29 08:38:37;;;;;;;19.25;11.40;;;12.10;99.90;;;;;;5025317;28;20376;-88
2023/04/29 08:41:03;;;;;;;21.27;12.40;;;12.10;99.90;;;;;;4987519;28;20498;-90
2023/04/29 08:43:29;;;;;;;16.13;10.77;;;11.90;99.90;;;;;;5006733;28;20030;-88
2023/04/29 08:45:58;;;;;;;17.40;11.13;;;11.90;99.90;;;;;;4987090;28;20363;-89
2023/04/29 08:48:25;;;;;;;16.60;11.80;;;12.10;99.90;;;;;;4985612;28;20042;-90
2023/04/29 08:50:51;;;;;;;10.73;8.18;;;12.20;99.90;;;;;;4987870;28;20384;-89
2023/04/29 08:53:16;;;;;;;15.80;9.50;;;12.60;99.90;;;;;;4990994;28;20029;-89
2023/04/29 08:55:44;;;;;;;13.20;8.70;;;12.60;99.90;;;;;;4992118;28;20821;-89
2023/04/29 08:58:11;;;;;;;13.75;9.60;;;12.80;99.90;;;;;;4992549;28;20625;-89
2023/04/29 09:00:38;;;;;;;12.30;8.88;;;12.60;99.90;;;;;;4990738;28;20030;-89
2023/04/29 09:03:20;;;;;;;9.52;7.30;;;12.80;99.90;;;;;;4984290;28;20386;-90
2023/04/29 09:05:49;;;;;;;13.02;8.63;;;13.00;99.90;;;;;;4988863;28;20037;-89
2023/04/29 09:08:15;;;;;;;13.15;9.02;;;12.90;99.90;;;;;;4984513;28;20072;-89
2023/04/29 09:10:42;;;;;;;10.52;6.57;;;13.10;99.90;;;;;;4991846;28;20042;-90
2023/04/29 09:13:08;;;;;;;9.10;5.38;;;13.70;99.90;;;;;;5002670;28;20065;-90
2023/04/29 09:15:41;;;;;;;10.88;7.07;;;13.80;99.90;;;;;;5005766;28;20132;-89
2023/04/29 09:18:07;;;;;;;9.70;7.68;;;13.30;99.90;;;;;;4986552;28;20068;-89
2023/04/29 09:20:33;;;;;;;12.20;7.50;;;13.10;99.90;;;;;;4982636;28;20065;-88
2023/04/29 09:23:02;;;;;;;10.82;8.00;;;13.10;99.90;;;;;;4986091;28;20030;-90
2023/04/29 09:25:28;;;;;;;9.05;6.57;;;13.20;99.90;;;;;;5011819;28;20400;-90
2023/04/29 09:27:54;;;;;;;8.02;6.20;;;13.20;99.90;;;;;;4992021;28;20041;-89
2023/04/29 09:30:21;;;;;;;10.77;6.63;;;13.30;99.90;;;;;;4991868;28;20068;-89
2023/04/29 09:33:06;;;;;;;9.50;6.78;;;13.50;99.90;;;;;;4990945;28;20103;-91
2023/04/29 09:35:32;;;;;;;11.13;7.35;;;13.70;99.90;;;;;;4983408;28;20395;-89
2023/04/29 09:38:12;;;;;;;7.57;6.28;;;13.50;99.90;;;;;;5007589;28;20022;-89
2023/04/29 09:40:40;;;;;;;11.20;7.25;;;13.60;99.90;;;;;;4984593;28;20041;-89
2023/04/29 09:43:13;;;;;;;10.73;8.02;;;14.00;99.90;;;;;;4985898;28;20030;-90
2023/04/29 09:45:43;;;;;;;10.48;7.97;;;13.80;99.90;;;;;;4985754;28;20111;-89
2023/04/29 09:48:11;;;;;;;9.55;6.75;;;13.40;99.90;;;;;;5006389;28;20121;-89
2023/04/29 09:50:38;;;;;;;9.40;6.30;;;13.80;99.90;;;;;;5006860;28;20029;-88
2023/04/29 09:53:10;;;;;;;8.80;5.68;;;14.10;99.90;;;;;;4983542;28;20049;-89
2023/04/29 09:55:36;;;;;;;8.57;6.72;;;14.00;99.90;;;;;;5006234;28;20030;-89
2023/04/29 09:58:02;;;;;;;10.73;5.00;;;13.70;99.90;;;;;;4991306;28;20030;-89
2023/04/29 10:00:33;;;;;;;5.07;4.05;;;13.90;99.90;;;;;;4988521;28;20465;-89
2023/04/29 10:03:00;;;;;;;8.57;5.40;;;14.00;99.90;;;;;;4983888;28;20032;-89
2023/04/29 10:05:30;;;;;;;6.22;4.80;;;14.00;99.90;;;;;;5005642;28;20444;-89
2023/04/29 10:07:59;;;;;;;9.57;5.72;;;14.60;99.90;;;;;;4984526;28;20026;-89
2023/04/29 10:10:28;;;;;;;7.80;4.80;;;14.90;99.90;;;;;;4990511;28;20053;-89
2023/04/29 10:12:54;;;;;;;5.20;3.88;;;15.50;99.90;;;;;;4981996;28;20034;-89
2023/04/29 10:15:38;;;;;;;5.38;3.42;;;16.00;99.90;;;;;;4985501;28;20030;-89
2023/04/29 10:18:20;;;;;;;4.43;3.75;;;16.50;99.90;;;;;;4983225;28;20161;-89
2023/04/29 10:20:47;;;;;;;7.50;5.00;;;16.50;99.90;;;;;;5005825;28;20046;-89
2023/04/29 10:23:14;;;;;;;7.00;5.00;;;16.00;99.90;;;;;;4985192;28;20034;-89
2023/04/29 10:25:45;;;;;;;6.07;4.53;;;15.20;99.90;;;;;;4988501;28;20026;-89
2023/04/29 10:28:15;;;;;;;8.70;5.20;;;14.70;99.90;;;;;;5003680;28;20026;-89
2023/04/29 10:30:49;;;;;;;8.90;6.10;;;14.00;99.90;;;;;;5005356;28;20297;-90
2023/04/29 10:33:16;;;;;;;7.28;5.20;;;13.70;99.90;;;;;;5021361;28;20026;-89
2023/04/29 10:35:43;;;;;;;7.22;3.60;;;14.40;99.90;;;;;;4989813;28;20576;-89
2023/04/29 10:38:25;;;;;;;5.20;3.17;;;15.30;99.90;;;;;;5005571;28;20030;-88
2023/04/29 10:40:52;;;;;;;5.47;2.60;;;16.10;99.90;;;;;;5005548;28;20128;-89
2023/04/29 10:43:25;;;;;;;3.67;1.67;;;16.30;99.90;;;;;;4984972;28;20038;-89
2023/04/29 10:46:16;;;;;;;4.70;2.83;;;16.70;99.90;;;;;;5022690;28;20115;-89
2023/04/29 10:48:43;;;;;;;4.50;2.65;;;16.80;99.90;;;;;;5010652;28;20454;-89
2023/04/29 10:51:08;;;;;;;3.15;1.95;;;16.50;99.90;;;;;;5006355;28;20021;-89
2023/04/29 10:53:34;;;;;;;4.82;2.67;;;16.90;99.90;;;;;;4995254;28;20026;-91
2023/04/29 10:56:12;;;;;;;5.03;2.58;;;16.70;99.90;;;;;;4989934;28;20037;-90
2023/04/29 10:58:40;;;;;;;2.50;1.50;;;16.50;99.90;;;;;;5005803;28;20173;-87
2023/04/29 11:01:10;;;;;;;2.90;1.15;;;17.00;99.90;;;;;;5005295;28;20038;-89
2023/04/29 11:03:57;;;;;;;3.83;1.17;;;17.10;99.90;;;;;;5019831;28;20018;-88
2023/04/29 11:06:33;;;;;;;3.78;2.17;;;16.20;99.90;;;;;;5004119;28;20038;-89
2023/04/29 11:09:10;;;;;;;3.22;1.17;;;15.90;99.90;;;;;;5010750;28;20506;-88
2023/04/29 11:11:48;;;;;;;2.30;1.40;;;15.90;99.90;;;;;;5010527;28;20025;-89
2023/04/29 11:14:20;;;;;;;3.85;2.38;;;15.90;99.90;;;;;;4987968;28;20104;-89
2023/04/29 11:16:48;;;;;;;4.65;2.60;;;15.50;99.90;;;;;;4999983;28;20119;-88
2023/04/29 11:19:16;;;;;;;3.28;1.40;;;15.70;99.90;;;;;;4988876;28;20124;-88
2023/04/29 11:21:44;;;;;;;3.40;1.77;;;16.20;99.90;;;;;;4989379;28;20037;-88
2023/04/29 11:24:11;;;;;;;3.13;1.27;;;16.60;99.90;;;;;;5004233;28;20037;-89
2023/04/29 11:26:37;;;;;;;3.55;2.40;;;16.60;99.90;;;;;;5005995;28;20491;-89
2023/04/29 11:29:10;;;;;;;3.72;2.20;;;16.00;99.90;;;;;;4988720;28;20045;-89
2023/04/29 11:31:37;;;;;;;6.28;3.67;;;15.90;99.90;;;;;;4983118;28;20455;-91
2023/04/29 11:34:05;;;;;;;3.92;1.85;;;15.20;99.90;;;;;;5004897;28;20479;-89
2023/04/29 11:36:31;;;;;;;2.40;1.08;;;15.50;99.90;;;;;;5022138;28;20022;-88
2023/04/29 11:39:02;;;;;;;2.65;1.48;;;16.00;99.90;;;;;;4985002;28;20097;-88
2023/04/29 11:41:29;;;;;;;2.50;0.90;;;15.90;99.90;;;;;;4980208;28;20037;-88
2023/04/29 11:43:58;;;;;;;4.45;2.35;;;16.30;99.90;;;;;;5005623;28;20401;-89
2023/04/29 11:46:25;;;;;;;2.55;1.27;;;16.10;99.90;;;;;;4983342;28;20040;-86
2023/04/29 11:48:51;;;;;;;4.32;1.90;;;16.40;99.90;;;;;;5005209;28;20160;-86
2023/04/29 11:51:18;;;;;;;2.63;1.15;;;16.60;99.90;;;;;;5004482;28;20121;-86
2023/04/29 11:53:44;;;;;;;2.13;0.82;;;17.10;99.90;;;;;;5009311;28;20038;-85
2023/04/29 11:56:12;;;;;;;2.08;0.80;;;17.30;99.90;;;;;;5005143;28;20037;-86
2023/04/29 11:58:40;;;;;;;1.40;0.60;;;17.10;99.90;;;;;;5003508;28;20034;-85
2023/04/29 12:01:06;;;;;;;5.05;1.10;;;17.00;99.90;;;;;;4989236;28;20397;-85
2023/04/29 12:03:32;;;;;;;2.80;1.00;;;16.30;99.90;;;;;;5004646;28;20121;-86
2023/04/29 12:06:00;;;;;;;3.70;2.05;;;16.10;99.90;;;;;;5004330;28;20117;-86
2023/04/29 12:08:27;;;;;;;2.38;1.17;;;15.90;99.90;;;;;;5005330;28;20033;-86
2023/04/29 12:10:58;;;;;;;2.70;1.60;;;15.90;99.90;;;;;;5021522;28;20410;-86
2023/04/29 12:13:27;;;;;;;3.17;1.48;;;16.00;99.90;;;;;;5008273;28;20398;-86
2023/04/29 12:15:55;;;;;;;3.70;1.83;;;16.20;99.90;;;;;;5019566;28;20041;-85
2023/04/29 12:18:22;;;;;;;4.18;2.08;;;16.10;99.90;;;;;;5003219;28;20120;-87
2023/04/29 12:20:50;;;;;;;3.08;1.67;;;15.90;99.90;;;;;;5006613;28;20048;-86
2023/04/29 12:23:28;;;;;;;2.00;0.60;;;15.60;99.90;;;;;;4987294;28;20080;-86
2023/04/29 12:25:56;;;;;;;1.73;0.60;;;16.00;99.90;;;;;;5018040;28;20053;-86
2023/04/29 12:28:23;;;;;;;1.40;0.75;;;16.30;99.90;;;;;;5020303;28;20120;-86
2023/04/29 12:30:50;;;;;;;3.40;1.20;;;16.40;99.90;;;;;;5004596;28;20026;-86
2023/04/29 12:33:28;;;;;;;2.08;0.80;;;16.50;99.90;;;;;;5008791;28;20041;-86
2023/04/29 12:35:57;;;;;;;3.05;1.10;;;16.40;99.90;;;;;;5006038;28;20051;-86
2023/04/29 12:38:28;;;;;;;3.42;2.38;;;16.40;99.90;;;;;;5021214;28;20400;-85
2023/04/29 12:40:55;;;;;;;2.60;1.23;;;16.00;99.90;;;;;;5021282;28;20049;-86
2023/04/29 12:43:32;;;;;;;3.13;0.70;;;16.30;99.90;;;;;;5012536;28;20030;-85
2023/04/29 12:46:08;;;;;;;2.13;0.60;;;17.20;99.90;;;;;;5005860;28;20133;-86
2023/04/29 12:48:42;;;;;;;3.25;0.90;;;17.10;99.90;;;;;;4984801;28;20397;-85